createdAt,value
2022-10-25T00:01:06.462Z,6.3
2022-10-25T00:02:14.892Z,6.3
2022-10-25T00:03:23.276Z,8.6
2022-10-25T00:04:31.620Z,8.6
2022-10-25T00:05:39.957Z,8.6
2022-10-25T00:06:48.466Z,7.2
2022-10-25T00:07:56.785Z,7.2
2022-10-25T00:09:05.108Z,7.2
2022-10-25T00:10:13.646Z,4.7
2022-10-25T00:11:21.978Z,4.7
2022-10-25T00:12:30.349Z,4.7
2022-10-25T00:13:38.837Z,6.7
2022-10-25T00:14:47.158Z,6.7
2022-10-25T00:15:55.468Z,6.7
2022-10-25T00:17:04.017Z,5.9
2022-10-25T00:18:12.346Z,5.9
2022-10-25T00:19:20.673Z,5.9
2022-10-25T00:20:29.210Z,4.7
2022-10-25T00:21:37.567Z,4.7
2022-10-25T00:22:46.128Z,4.7
2022-10-25T00:23:54.409Z,7.3
2022-10-25T00:25:02.725Z,7.3
2022-10-25T00:26:11.055Z,7.3
2022-10-25T00:27:19.590Z,8
2022-10-25T00:28:27.930Z,8
2022-10-25T00:29:36.263Z,8
2022-10-25T00:30:44.790Z,5.4
2022-10-25T00:31:53.113Z,5.4
2022-10-25T00:33:01.415Z,5.4
2022-10-25T00:34:09.954Z,4.2
2022-10-25T00:35:18.289Z,4.2
2022-10-25T00:36:26.614Z,4.2
2022-10-25T00:37:35.224Z,4.7
2022-10-25T00:38:43.446Z,4.7
2022-10-25T00:39:51.773Z,4.7
2022-10-25T00:41:00.298Z,3.8
2022-10-25T00:42:08.630Z,3.8
2022-10-25T00:43:16.953Z,3.8
2022-10-25T00:44:25.489Z,5.7
2022-10-25T00:45:33.803Z,5.7
2022-10-25T00:46:42.124Z,5.7
2022-10-25T00:47:50.691Z,3.5
2022-10-25T00:48:58.958Z,3.5
2022-10-25T00:50:07.295Z,3.5
2022-10-25T00:51:15.844Z,4.6
2022-10-25T00:52:24.174Z,4.6
2022-10-25T00:53:32.511Z,4.6
2022-10-25T00:54:41.024Z,5.5
2022-10-25T00:55:49.346Z,5.5
2022-10-25T00:56:57.690Z,5.5
2022-10-25T00:58:06.211Z,5.3
2022-10-25T00:59:14.553Z,5.3
2022-10-25T01:00:22.874Z,5.3
2022-10-25T01:01:31.549Z,3.7
2022-10-25T01:02:39.863Z,3.7
2022-10-25T01:03:48.105Z,3.7
2022-10-25T01:04:56.631Z,4.4
2022-10-25T01:06:04.964Z,4.4
2022-10-25T01:07:13.287Z,4.4
2022-10-25T01:08:21.831Z,5.4
2022-10-25T01:09:30.178Z,5.4
2022-10-25T01:10:38.502Z,5.4
2022-10-25T01:11:47.029Z,5.6
2022-10-25T01:12:55.693Z,5.6
2022-10-25T01:14:03.669Z,5.6
2022-10-25T01:15:12.216Z,5.3
2022-10-25T01:16:20.533Z,5.3
2022-10-25T01:17:28.858Z,5.3
2022-10-25T01:18:37.383Z,4.7
2022-10-25T01:19:45.722Z,4.7
2022-10-25T01:20:54.053Z,4.7
2022-10-25T01:22:02.582Z,4.9
2022-10-25T01:23:10.930Z,4.9
2022-10-25T01:24:19.260Z,4.9
2022-10-25T01:25:27.834Z,5.7
2022-10-25T01:26:36.129Z,5.7
2022-10-25T01:27:44.497Z,5.7
2022-10-25T01:28:52.987Z,6.2
2022-10-25T01:30:01.327Z,6.2
2022-10-25T01:31:09.632Z,6.2
2022-10-25T01:32:18.158Z,7
2022-10-25T01:33:26.479Z,7
2022-10-25T01:34:34.807Z,7
2022-10-25T01:35:43.361Z,6.2
2022-10-25T01:36:51.682Z,6.2
2022-10-25T01:37:59.990Z,6.2
2022-10-25T01:39:08.542Z,5
2022-10-25T01:40:16.843Z,5
2022-10-25T01:41:25.188Z,5
2022-10-25T01:42:33.713Z,5.5
2022-10-25T01:43:42.075Z,5.5
2022-10-25T01:44:50.445Z,5.5
2022-10-25T01:45:58.973Z,5.1
2022-10-25T01:47:07.286Z,5.1
2022-10-25T01:48:15.602Z,5.1
2022-10-25T01:49:24.151Z,3.9
2022-10-25T01:50:32.483Z,3.9
2022-10-25T01:51:40.801Z,3.9
2022-10-25T01:52:49.368Z,5
2022-10-25T01:53:57.657Z,5
2022-10-25T01:55:05.973Z,5
2022-10-25T01:56:14.522Z,6.1
2022-10-25T01:57:22.868Z,6.1
2022-10-25T01:58:31.178Z,6.1
2022-10-25T01:59:39.711Z,3.9
2022-10-25T02:00:48.080Z,3.9
2022-10-25T02:01:56.340Z,3.9
2022-10-25T02:03:04.866Z,4.7
2022-10-25T02:04:13.194Z,4.7
2022-10-25T02:05:21.514Z,4.7
2022-10-25T02:06:30.040Z,4.5
2022-10-25T02:07:38.342Z,4.5
2022-10-25T02:08:46.656Z,4.5
2022-10-25T02:09:55.226Z,4.5
2022-10-25T02:11:03.502Z,4.5
2022-10-25T02:12:11.840Z,4.5
2022-10-25T02:13:20.389Z,5.2
2022-10-25T02:14:28.700Z,5.2
2022-10-25T02:15:37.021Z,5.2
2022-10-25T02:16:45.577Z,5.9
2022-10-25T02:17:53.887Z,5.9
2022-10-25T02:19:02.233Z,5.9
2022-10-25T02:20:10.751Z,6.4
2022-10-25T02:21:19.080Z,6.4
2022-10-25T02:22:27.381Z,6.4
2022-10-25T02:23:35.909Z,4.2
2022-10-25T02:24:44.249Z,4.2
2022-10-25T02:25:52.563Z,4.2
2022-10-25T02:27:01.089Z,7.4
2022-10-25T02:28:09.401Z,7.4
2022-10-25T02:29:17.754Z,7.4
2022-10-25T02:30:26.304Z,6.5
2022-10-25T02:31:34.608Z,6.5
2022-10-25T02:32:42.926Z,6.5
2022-10-25T02:33:51.474Z,4.1
2022-10-25T02:34:59.803Z,4.1
2022-10-25T02:36:08.103Z,4.1
2022-10-25T02:37:16.636Z,4.1
2022-10-25T02:38:24.955Z,4.1
2022-10-25T02:39:33.284Z,4.1
2022-10-25T02:40:41.798Z,5.1
2022-10-25T02:41:50.125Z,5.1
2022-10-25T02:42:58.442Z,5.1
2022-10-25T02:44:06.976Z,4
2022-10-25T02:45:15.318Z,4
2022-10-25T02:46:23.636Z,4
2022-10-25T02:47:32.160Z,4.9
2022-10-25T02:48:40.486Z,4.9
2022-10-25T02:49:48.820Z,4.9
2022-10-25T02:50:57.337Z,5
2022-10-25T02:52:05.652Z,5
2022-10-25T02:53:13.979Z,5
2022-10-25T02:54:22.524Z,3.9
2022-10-25T02:55:30.832Z,3.9
2022-10-25T02:56:39.152Z,3.9
2022-10-25T02:57:47.688Z,4.4
2022-10-25T02:58:56.008Z,4.4
2022-10-25T03:00:04.348Z,4.4
2022-10-25T03:01:12.937Z,5.2
2022-10-25T03:02:21.165Z,5.2
2022-10-25T03:03:29.516Z,5.2
2022-10-25T03:04:38.044Z,3.6
2022-10-25T03:05:46.348Z,3.6
2022-10-25T03:06:54.673Z,3.6
2022-10-25T03:08:03.218Z,7.1
2022-10-25T03:09:11.523Z,7.1
2022-10-25T03:10:19.862Z,7.1
2022-10-25T03:11:28.391Z,5.3
2022-10-25T03:12:36.711Z,5.3
2022-10-25T03:13:45.046Z,5.3
2022-10-25T03:14:53.572Z,5.8
2022-10-25T03:16:01.888Z,5.8
2022-10-25T03:17:10.225Z,5.8
2022-10-25T03:18:18.730Z,4.9
2022-10-25T03:19:27.039Z,4.9
2022-10-25T03:20:35.372Z,4.9
2022-10-25T03:21:43.900Z,6.1
2022-10-25T03:22:52.216Z,6.1
2022-10-25T03:24:00.530Z,6.1
2022-10-25T03:26:17.364Z,4.2
2022-10-25T03:27:25.687Z,4.2
2022-10-25T03:28:34.238Z,3.6
2022-10-25T03:29:42.570Z,3.6
2022-10-25T03:30:50.884Z,3.6
2022-10-25T03:31:59.419Z,4.5
2022-10-25T03:33:07.800Z,4.5
2022-10-25T03:34:16.092Z,4.5
2022-10-25T03:35:24.622Z,3.6
2022-10-25T03:36:32.935Z,3.6
2022-10-25T03:37:41.258Z,3.6
2022-10-25T03:38:49.787Z,4.5
2022-10-25T03:39:58.095Z,4.5
2022-10-25T03:41:06.412Z,4.5
2022-10-25T03:42:14.937Z,3.3
2022-10-25T03:44:31.593Z,3.3
2022-10-25T03:45:40.118Z,5.5
2022-10-25T03:46:48.436Z,5.5
2022-10-25T03:47:56.748Z,5.5
2022-10-25T03:49:05.313Z,4.5
2022-10-25T03:50:13.597Z,4.5
2022-10-25T03:51:21.908Z,4.5
2022-10-25T03:52:30.430Z,6.6
2022-10-25T03:53:38.748Z,6.6
2022-10-25T03:54:47.089Z,6.6
2022-10-25T03:55:55.626Z,6.2
2022-10-25T03:57:03.964Z,6.2
2022-10-25T03:58:12.277Z,6.2
2022-10-25T03:59:20.803Z,3.9
2022-10-25T04:00:29.229Z,3.9
2022-10-25T04:01:37.594Z,3.9
2022-10-25T04:02:46.034Z,5.3
2022-10-25T04:03:54.352Z,5.3
2022-10-25T04:05:02.702Z,5.3
2022-10-25T04:06:11.189Z,5
2022-10-25T04:07:19.501Z,5
2022-10-25T04:08:27.827Z,5
2022-10-25T04:09:36.353Z,5.2
2022-10-25T04:10:44.659Z,5.2
2022-10-25T04:11:52.974Z,5.2
2022-10-25T04:13:01.510Z,7.9
2022-10-25T04:14:09.832Z,7.9
2022-10-25T04:15:18.148Z,7.9
2022-10-25T04:16:26.673Z,3.3
2022-10-25T04:17:35.316Z,3.3
2022-10-25T04:18:43.642Z,3.3
2022-10-25T04:19:52.191Z,4
2022-10-25T04:21:00.519Z,4
2022-10-25T04:22:08.825Z,4
2022-10-25T04:23:17.352Z,4.6
2022-10-25T04:24:25.682Z,4.6
2022-10-25T04:25:34.002Z,4.6
2022-10-25T04:26:42.527Z,4.6
2022-10-25T04:27:50.876Z,4.6
2022-10-25T04:28:59.201Z,4.6
2022-10-25T04:30:07.727Z,6.3
2022-10-25T04:31:16.046Z,6.3
2022-10-25T04:32:24.374Z,6.3
2022-10-25T04:33:32.894Z,4.4
2022-10-25T04:34:41.228Z,4.4
2022-10-25T04:35:49.543Z,4.4
2022-10-25T04:36:58.096Z,7.3
2022-10-25T04:38:06.400Z,7.3
2022-10-25T04:39:14.730Z,7.3
2022-10-25T04:40:24.858Z,4.5
2022-10-25T04:41:31.567Z,4.5
2022-10-25T04:42:39.904Z,4.5
2022-10-25T04:43:48.427Z,4.6
2022-10-25T04:44:56.759Z,4.6
2022-10-25T04:46:05.079Z,4.6
2022-10-25T04:47:13.619Z,5.2
2022-10-25T04:48:21.956Z,5.2
2022-10-25T04:49:30.265Z,5.2
2022-10-25T04:50:38.819Z,5.8
2022-10-25T04:51:47.245Z,5.8
2022-10-25T04:52:55.496Z,5.8
2022-10-25T04:54:04.009Z,7.6
2022-10-25T04:55:12.337Z,7.6
2022-10-25T04:56:20.654Z,7.6
2022-10-25T04:57:29.252Z,6
2022-10-25T04:58:37.566Z,6
2022-10-25T04:59:45.907Z,6
2022-10-25T05:00:54.430Z,6.3
2022-10-25T05:02:02.785Z,6.3
2022-10-25T05:03:12.484Z,6.3
2022-10-25T05:04:19.617Z,6.1
2022-10-25T05:05:27.950Z,6.1
2022-10-25T05:06:36.279Z,6.1
2022-10-25T05:07:44.806Z,5.3
2022-10-25T05:08:53.148Z,5.3
2022-10-25T05:10:01.460Z,5.3
2022-10-25T05:11:09.989Z,4.2
2022-10-25T05:12:18.332Z,4.2
2022-10-25T05:13:26.644Z,4.2
2022-10-25T05:14:35.188Z,6.5
2022-10-25T05:15:43.504Z,6.5
2022-10-25T05:16:51.833Z,6.5
2022-10-25T05:18:00.363Z,6.2
2022-10-25T05:19:08.674Z,6.2
2022-10-25T05:20:16.991Z,6.2
2022-10-25T05:22:33.848Z,5.5
2022-10-25T05:23:42.200Z,5.5
2022-10-25T05:24:50.753Z,6.8
2022-10-25T05:25:59.042Z,6.8
2022-10-25T05:27:07.372Z,6.8
2022-10-25T05:28:15.894Z,4.9
2022-10-25T05:29:24.219Z,4.9
2022-10-25T05:30:32.530Z,4.9
2022-10-25T05:31:41.106Z,7.1
2022-10-25T05:32:49.752Z,7.1
2022-10-25T05:33:57.754Z,7.1
2022-10-25T05:35:06.285Z,5.6
2022-10-25T05:36:14.612Z,5.6
2022-10-25T05:37:22.941Z,5.6
2022-10-25T05:38:32.998Z,4.5
2022-10-25T05:39:39.779Z,4.5
2022-10-25T05:40:48.175Z,4.5
2022-10-25T05:41:56.645Z,5.5
2022-10-25T05:43:04.988Z,5.5
2022-10-25T05:44:13.306Z,5.5
2022-10-25T05:45:21.861Z,4.8
2022-10-25T05:46:30.189Z,4.8
2022-10-25T05:47:38.558Z,4.8
2022-10-25T05:48:48.860Z,7.1
2022-10-25T05:49:55.421Z,7.1
2022-10-25T05:51:08.554Z,7.1
2022-10-25T05:52:12.284Z,5.7
2022-10-25T05:53:20.597Z,5.7
2022-10-25T05:54:28.940Z,5.7
2022-10-25T05:55:37.484Z,7.6
2022-10-25T05:56:45.817Z,7.6
2022-10-25T05:57:54.107Z,7.6
2022-10-25T05:59:02.640Z,6.6
2022-10-25T06:00:10.982Z,6.6
2022-10-25T06:01:19.428Z,6.6
2022-10-25T06:02:27.874Z,3.7
2022-10-25T06:03:36.168Z,3.7
2022-10-25T06:04:46.892Z,3.7
2022-10-25T06:05:53.034Z,5.8
2022-10-25T06:07:01.366Z,5.8
2022-10-25T06:08:09.690Z,5.8
2022-10-25T06:09:18.215Z,4.9
2022-10-25T06:10:26.538Z,4.9
2022-10-25T06:11:34.894Z,4.9
2022-10-25T06:12:43.469Z,4.6
2022-10-25T06:13:51.750Z,4.6
2022-10-25T06:15:00.077Z,4.6
2022-10-25T06:16:08.597Z,4.7
2022-10-25T06:17:16.932Z,4.7
2022-10-25T06:18:25.247Z,4.7
2022-10-25T06:19:33.774Z,6.2
2022-10-25T06:20:42.135Z,6.2
2022-10-25T06:21:50.422Z,6.2
2022-10-25T06:22:58.972Z,3.3
2022-10-25T06:24:07.293Z,3.3
2022-10-25T06:25:15.616Z,3.3
2022-10-25T06:26:24.156Z,5.1
2022-10-25T06:27:32.479Z,5.1
2022-10-25T06:28:40.829Z,5.1
2022-10-25T06:29:49.321Z,6.7
2022-10-25T06:30:57.650Z,6.7
2022-10-25T06:32:06.015Z,6.7
2022-10-25T06:33:14.636Z,5.6
2022-10-25T06:34:22.933Z,5.6
2022-10-25T06:35:31.263Z,5.6
2022-10-25T06:36:39.988Z,5.8
2022-10-25T06:37:48.504Z,5.8
2022-10-25T06:38:58.844Z,5.8
2022-10-25T06:40:05.424Z,5.4
2022-10-25T06:41:13.792Z,5.4
2022-10-25T06:42:22.131Z,5.4
2022-10-25T06:43:30.677Z,7.2
2022-10-25T06:44:39.010Z,7.2
2022-10-25T06:45:47.313Z,7.2
2022-10-25T06:47:16.269Z,4.6
2022-10-25T06:48:04.488Z,4.6
2022-10-25T06:49:12.798Z,4.6
2022-10-25T06:50:21.324Z,7
2022-10-25T06:51:29.931Z,7
2022-10-25T06:52:38.142Z,7
2022-10-25T06:53:46.746Z,6.7
2022-10-25T06:54:55.251Z,6.7
2022-10-25T06:56:04.536Z,6.7
2022-10-25T06:57:12.206Z,7.3
2022-10-25T06:58:20.602Z,7.3
2022-10-25T06:59:29.209Z,7.3
2022-10-25T07:00:37.818Z,7.6
2022-10-25T07:01:46.276Z,7.6
2022-10-25T07:02:54.786Z,7.6
2022-10-25T07:04:03.342Z,5.3
2022-10-25T07:05:11.675Z,5.3
2022-10-25T07:06:20.015Z,5.3
2022-10-25T07:07:28.534Z,6.9
2022-10-25T07:08:36.853Z,6.9
2022-10-25T07:09:45.180Z,6.9
2022-10-25T07:10:54.018Z,3.8
2022-10-25T07:12:02.298Z,3.8
2022-10-25T07:13:10.773Z,3.8
2022-10-25T07:14:19.294Z,7
2022-10-25T07:15:27.614Z,7
2022-10-25T07:16:35.972Z,7
2022-10-25T07:17:44.628Z,4.8
2022-10-25T07:18:52.790Z,4.8
2022-10-25T07:20:01.128Z,4.8
2022-10-25T07:21:09.652Z,10.3
2022-10-25T07:22:17.965Z,10.3
2022-10-25T07:23:26.288Z,10.3
2022-10-25T07:24:34.800Z,4.4
2022-10-25T07:25:43.154Z,4.4
2022-10-25T07:26:51.525Z,4.4
2022-10-25T07:28:00.065Z,8.6
2022-10-25T07:29:08.388Z,8.6
2022-10-25T07:30:16.729Z,8.6
2022-10-25T07:31:25.274Z,5
2022-10-25T07:32:33.617Z,5
2022-10-25T07:33:41.915Z,5
2022-10-25T07:34:50.461Z,6.8
2022-10-25T07:36:06.368Z,6.8
2022-10-25T07:37:07.096Z,6.8
2022-10-25T07:38:15.627Z,5.6
2022-10-25T07:39:23.941Z,5.6
2022-10-25T07:40:32.279Z,5.6
2022-10-25T07:41:40.796Z,7.5
2022-10-25T07:42:49.130Z,7.5
2022-10-25T07:43:57.450Z,7.5
2022-10-25T07:45:05.981Z,6.6
2022-10-25T07:46:14.298Z,6.6
2022-10-25T07:47:22.631Z,6.6
2022-10-25T07:48:31.191Z,5.6
2022-10-25T07:49:39.498Z,5.6
2022-10-25T07:50:47.814Z,5.6
2022-10-25T07:51:56.353Z,4.4
2022-10-25T07:53:04.672Z,4.4
2022-10-25T07:54:12.999Z,4.4
2022-10-25T07:55:21.544Z,5.2
2022-10-25T07:56:29.867Z,5.2
2022-10-25T07:57:38.213Z,5.2
2022-10-25T07:58:46.739Z,3.6
2022-10-25T07:59:55.080Z,3.6
2022-10-25T08:01:03.460Z,3.6
2022-10-25T08:02:11.935Z,4.4
2022-10-25T08:03:20.308Z,4.4
2022-10-25T08:04:28.621Z,4.4
2022-10-25T08:05:37.116Z,6.1
2022-10-25T08:06:45.428Z,6.1
2022-10-25T08:07:53.765Z,6.1
2022-10-25T08:09:05.391Z,5.9
2022-10-25T08:10:10.629Z,5.9
2022-10-25T08:11:18.950Z,5.9
2022-10-25T08:12:27.474Z,5
2022-10-25T08:13:35.800Z,5
2022-10-25T08:14:45.036Z,5
2022-10-25T08:15:52.679Z,6
2022-10-25T08:17:00.995Z,6
2022-10-25T08:18:09.303Z,6
2022-10-25T08:19:17.860Z,5.6
2022-10-25T08:20:43.270Z,5.6
2022-10-25T08:21:34.546Z,5.6
2022-10-25T08:22:43.057Z,5.3
2022-10-25T08:23:51.380Z,5.3
2022-10-25T08:24:59.719Z,5.3
2022-10-25T08:26:08.266Z,6.2
2022-10-25T08:27:16.576Z,6.2
2022-10-25T08:28:24.898Z,6.2
2022-10-25T08:29:33.428Z,5.6
2022-10-25T08:30:41.774Z,5.6
2022-10-25T08:31:50.093Z,5.6
2022-10-25T08:32:58.859Z,5.2
2022-10-25T08:34:07.007Z,5.2
2022-10-25T08:35:15.270Z,5.2
2022-10-25T08:36:23.827Z,5.6
2022-10-25T08:37:32.123Z,5.6
2022-10-25T08:38:40.436Z,5.6
2022-10-25T08:39:51.074Z,5.6
2022-10-25T08:40:57.298Z,5.6
2022-10-25T08:42:05.618Z,5.6
2022-10-25T08:43:14.137Z,7.6
2022-10-25T08:44:22.465Z,7.6
2022-10-25T08:45:30.778Z,7.6
2022-10-25T08:46:39.308Z,7.4
2022-10-25T08:47:47.923Z,7.4
2022-10-25T08:48:55.956Z,7.4
2022-10-25T08:50:04.502Z,5.8
2022-10-25T08:51:12.827Z,5.8
2022-10-25T08:52:21.200Z,5.8
2022-10-25T08:53:29.675Z,9.1
2022-10-25T08:54:38.002Z,9.1
2022-10-25T08:55:59.089Z,9.1
2022-10-25T08:57:03.664Z,5.4
2022-10-25T08:58:03.197Z,5.4
2022-10-25T08:59:11.540Z,5.4
2022-10-25T09:00:20.138Z,7.9
2022-10-25T09:01:28.560Z,7.9
2022-10-25T09:02:36.762Z,7.9
2022-10-25T09:03:45.276Z,7.7
2022-10-25T09:04:53.612Z,7.7
2022-10-25T09:06:01.931Z,7.7
2022-10-25T09:07:10.469Z,6.7
2022-10-25T09:08:18.805Z,6.7
2022-10-25T09:09:27.116Z,6.7
2022-10-25T09:10:35.644Z,5.9
2022-10-25T09:11:43.966Z,5.9
2022-10-25T09:12:52.325Z,5.9
2022-10-25T09:14:00.856Z,5.1
2022-10-25T09:15:09.169Z,5.1
2022-10-25T09:16:17.479Z,5.1
2022-10-25T09:17:26.006Z,6.2
2022-10-25T09:18:34.333Z,6.2
2022-10-25T09:19:42.650Z,6.2
2022-10-25T09:20:51.181Z,7.5
2022-10-25T09:21:59.496Z,7.5
2022-10-25T09:23:07.822Z,7.5
2022-10-25T09:24:16.375Z,4.9
2022-10-25T09:25:24.673Z,4.9
2022-10-25T09:26:32.999Z,4.9
2022-10-25T09:27:41.530Z,6.3
2022-10-25T09:28:49.877Z,6.3
2022-10-25T09:29:58.189Z,6.3
2022-10-25T09:31:06.724Z,4
2022-10-25T09:32:15.030Z,4
2022-10-25T09:33:23.372Z,4
2022-10-25T09:34:31.905Z,4.3
2022-10-25T09:35:40.215Z,4.3
2022-10-25T09:36:48.542Z,4.3
2022-10-25T09:37:57.085Z,5.3
2022-10-25T09:39:05.434Z,5.3
2022-10-25T09:40:13.767Z,5.3
2022-10-25T09:41:22.275Z,6.1
2022-10-25T09:42:30.598Z,6.1
2022-10-25T09:43:38.921Z,6.1
2022-10-25T09:44:47.455Z,5.4
2022-10-25T09:45:55.787Z,5.4
2022-10-25T09:47:04.102Z,5.4
2022-10-25T09:48:12.663Z,6.7
2022-10-25T09:49:20.986Z,6.7
2022-10-25T09:50:29.315Z,6.7
2022-10-25T09:51:37.853Z,4.6
2022-10-25T09:52:46.187Z,4.6
2022-10-25T09:53:54.503Z,4.6
2022-10-25T09:55:03.014Z,4.6
2022-10-25T09:56:11.360Z,4.6
2022-10-25T09:57:19.683Z,4.6
2022-10-25T09:58:28.204Z,7.2
2022-10-25T09:59:36.524Z,7.2
2022-10-25T10:00:44.824Z,7.2
2022-10-25T10:01:53.404Z,4.1
2022-10-25T10:03:01.751Z,4.1
2022-10-25T10:04:10.007Z,4.1
2022-10-25T10:05:18.514Z,4.5
2022-10-25T10:06:26.840Z,4.5
2022-10-25T10:07:35.166Z,4.5
2022-10-25T10:08:43.683Z,6
2022-10-25T10:09:52.002Z,6
2022-10-25T10:11:00.320Z,6
2022-10-25T10:12:08.870Z,6.2
2022-10-25T10:13:17.162Z,6.2
2022-10-25T10:14:25.500Z,6.2
2022-10-25T10:15:34.012Z,7.6
2022-10-25T10:16:42.339Z,7.6
2022-10-25T10:17:50.666Z,7.6
2022-10-25T10:18:59.180Z,5.3
2022-10-25T10:20:07.492Z,5.3
2022-10-25T10:21:15.819Z,5.3
2022-10-25T10:22:24.339Z,5.9
2022-10-25T10:23:32.655Z,5.9
2022-10-25T10:24:40.990Z,5.9
2022-10-25T10:25:49.516Z,6
2022-10-25T10:26:57.873Z,6
2022-10-25T10:28:06.201Z,6
2022-10-25T10:29:17.527Z,7
2022-10-25T10:30:23.019Z,7
2022-10-25T10:31:31.323Z,7
2022-10-25T10:33:48.155Z,6.7
2022-10-25T10:34:56.479Z,6.7
2022-10-25T10:36:04.997Z,6.8
2022-10-25T10:37:13.310Z,6.8
2022-10-25T10:38:21.631Z,6.8
2022-10-25T10:39:30.154Z,6.4
2022-10-25T10:40:40.839Z,6.4
2022-10-25T10:42:15.069Z,6.4
2022-10-25T10:43:21.871Z,6.4
2022-10-25T10:44:31.953Z,6.4
2022-10-25T10:45:40.275Z,6.4
2022-10-25T10:46:48.804Z,6.7
2022-10-25T10:47:57.127Z,6.7
2022-10-25T10:49:05.433Z,6.7
2022-10-25T10:50:13.953Z,4.4
2022-10-25T10:51:42.816Z,4.4
2022-10-25T10:52:30.589Z,4.4
2022-10-25T10:53:39.113Z,3.4
2022-10-25T10:54:47.430Z,3.4
2022-10-25T10:55:55.747Z,3.4
2022-10-25T10:57:04.288Z,4.4
2022-10-25T10:58:12.614Z,4.4
2022-10-25T10:59:20.952Z,4.4
2022-10-25T11:00:29.449Z,6
2022-10-25T11:01:37.965Z,6
2022-10-25T11:02:46.739Z,6
2022-10-25T11:04:00.273Z,7.6
2022-10-25T11:05:02.935Z,7.6
2022-10-25T11:06:11.247Z,7.6
2022-10-25T11:07:19.797Z,8.5
2022-10-25T11:08:28.119Z,8.5
2022-10-25T11:09:36.447Z,8.5
2022-10-25T11:10:44.978Z,6.2
2022-10-25T11:11:53.311Z,6.2
2022-10-25T11:13:01.642Z,6.2
2022-10-25T11:14:10.157Z,4.8
2022-10-25T11:15:18.606Z,4.8
2022-10-25T11:16:27.307Z,4.8
2022-10-25T11:17:35.329Z,3.6
2022-10-25T11:18:43.668Z,3.6
2022-10-25T11:19:51.975Z,3.6
2022-10-25T11:21:00.506Z,5.3
2022-10-25T11:22:08.847Z,5.3
2022-10-25T11:23:17.168Z,5.3
2022-10-25T11:24:25.696Z,5
2022-10-25T11:25:34.008Z,5
2022-10-25T11:26:42.337Z,5
2022-10-25T11:27:51.107Z,4.8
2022-10-25T11:28:59.165Z,4.8
2022-10-25T11:30:07.488Z,4.8
2022-10-25T11:31:16.137Z,5
2022-10-25T11:32:24.395Z,5
2022-10-25T11:33:32.678Z,5
2022-10-25T11:34:41.198Z,5.7
2022-10-25T11:35:49.531Z,5.7
2022-10-25T11:36:57.847Z,5.7
2022-10-25T11:38:06.391Z,5.8
2022-10-25T11:39:14.697Z,5.8
2022-10-25T11:40:23.020Z,5.8
2022-10-25T11:41:31.560Z,5.8
2022-10-25T11:42:39.877Z,5.8
2022-10-25T11:43:48.200Z,5.8
2022-10-25T11:44:56.725Z,4.5
2022-10-25T11:46:05.041Z,4.5
2022-10-25T11:47:13.490Z,4.5
2022-10-25T11:48:21.890Z,6.4
2022-10-25T11:49:30.208Z,6.4
2022-10-25T11:50:38.531Z,6.4
2022-10-25T11:51:47.061Z,7.3
2022-10-25T11:52:56.069Z,7.3
2022-10-25T11:54:03.715Z,7.3
2022-10-25T11:55:12.221Z,6.8
2022-10-25T11:56:20.542Z,6.8
2022-10-25T11:57:28.890Z,6.8
2022-10-25T11:58:37.414Z,5.6
2022-10-25T11:59:45.720Z,5.6
2022-10-25T12:00:54.056Z,5.6
2022-10-25T12:02:02.578Z,3
2022-10-25T12:03:11.030Z,3
2022-10-25T12:04:19.245Z,3
2022-10-25T12:05:27.796Z,5.3
2022-10-25T12:06:36.129Z,5.3
2022-10-25T12:07:44.519Z,5.3
2022-10-25T12:08:53.005Z,4.5
2022-10-25T12:10:01.353Z,4.5
2022-10-25T12:11:11.741Z,4.5
2022-10-25T12:12:18.257Z,4.1
2022-10-25T12:13:26.568Z,4.1
2022-10-25T12:14:34.902Z,4.1
2022-10-25T12:15:43.448Z,5.4
2022-10-25T12:16:51.759Z,5.4
2022-10-25T12:18:00.073Z,5.4
2022-10-25T12:19:08.713Z,7
2022-10-25T12:20:16.912Z,7
2022-10-25T12:21:25.261Z,7
2022-10-25T12:22:33.801Z,4
2022-10-25T12:23:42.111Z,4
2022-10-25T12:24:50.437Z,4
2022-10-25T12:25:58.976Z,4
2022-10-25T12:27:07.290Z,4
2022-10-25T12:28:15.596Z,4
2022-10-25T12:29:24.117Z,3.6
2022-10-25T12:30:32.467Z,3.6
2022-10-25T12:31:40.840Z,3.6
2022-10-25T12:32:49.641Z,4.4
2022-10-25T12:33:57.688Z,4.4
2022-10-25T12:35:06.113Z,4.4
2022-10-25T12:36:14.546Z,5.5
2022-10-25T12:37:22.863Z,5.5
2022-10-25T12:38:31.179Z,5.5
2022-10-25T12:39:39.707Z,5
2022-10-25T12:40:48.025Z,5
2022-10-25T12:41:56.333Z,5
2022-10-25T12:43:04.845Z,6.6
2022-10-25T12:44:13.157Z,6.6
2022-10-25T12:45:21.486Z,6.6
2022-10-25T12:46:29.997Z,4.7
2022-10-25T12:47:38.311Z,4.7
2022-10-25T12:48:46.618Z,4.7
2022-10-25T12:49:55.157Z,3.6
2022-10-25T12:51:03.608Z,3.6
2022-10-25T12:52:11.832Z,3.6
2022-10-25T12:53:20.378Z,3.7
2022-10-25T12:54:28.705Z,3.7
2022-10-25T12:55:37.140Z,3.7
2022-10-25T12:56:45.662Z,4.2
2022-10-25T12:57:54.080Z,4.2
2022-10-25T12:59:02.392Z,4.2
2022-10-25T13:00:11.026Z,4.3
2022-10-25T13:01:19.371Z,4.3
2022-10-25T13:02:27.644Z,4.3
2022-10-25T13:03:36.206Z,7.4
2022-10-25T13:04:44.529Z,7.4
2022-10-25T13:05:52.889Z,7.4
2022-10-25T13:07:01.610Z,5.3
2022-10-25T13:08:09.845Z,5.3
2022-10-25T13:09:18.896Z,5.3
2022-10-25T13:11:35.106Z,5
2022-10-25T13:12:43.476Z,5
2022-10-25T13:13:52.065Z,6.1
2022-10-25T13:15:00.417Z,6.1
2022-10-25T13:16:08.750Z,6.1
2022-10-25T13:17:17.297Z,2.8
2022-10-25T13:18:25.630Z,2.8
2022-10-25T13:19:54.393Z,2.8
2022-10-25T13:20:42.626Z,2.4
2022-10-25T13:21:52.580Z,2.4
2022-10-25T13:22:59.437Z,2.4
2022-10-25T13:24:07.876Z,4.5
2022-10-25T13:25:16.225Z,4.5
2022-10-25T13:26:24.565Z,4.5
2022-10-25T13:27:33.125Z,3.1
2022-10-25T13:28:41.443Z,3.1
2022-10-25T13:29:49.813Z,3.1
2022-10-25T13:30:58.386Z,4.3
2022-10-25T13:32:08.907Z,4.3
2022-10-25T13:33:15.066Z,4.3
2022-10-25T13:34:23.616Z,5.3
2022-10-25T13:35:31.963Z,5.3
2022-10-25T13:36:40.317Z,5.3
2022-10-25T13:37:48.968Z,4.5
2022-10-25T13:38:57.318Z,4.5
2022-10-25T13:40:05.570Z,4.5
2022-10-25T13:41:14.078Z,5.4
2022-10-25T13:42:22.425Z,5.4
2022-10-25T13:43:30.767Z,5.4
2022-10-25T13:44:39.307Z,4.1
2022-10-25T13:45:47.634Z,4.1
2022-10-25T13:46:55.993Z,4.1
2022-10-25T13:48:04.514Z,4.6
2022-10-25T13:49:12.844Z,4.6
2022-10-25T13:50:21.325Z,4.6
2022-10-25T13:51:29.787Z,4.5
2022-10-25T13:52:38.149Z,4.5
2022-10-25T13:53:46.521Z,4.5
2022-10-25T13:54:55.095Z,8.6
2022-10-25T13:56:03.401Z,8.6
2022-10-25T13:57:11.784Z,8.6
2022-10-25T13:58:20.348Z,8.3
2022-10-25T13:59:28.699Z,8.3
2022-10-25T14:00:37.188Z,8.3
2022-10-25T14:01:45.696Z,21.200001
2022-10-25T14:02:53.930Z,21.200001
2022-10-25T14:04:02.300Z,21.200001
2022-10-25T14:05:10.839Z,12.5
2022-10-25T14:06:19.223Z,12.5
2022-10-25T14:07:27.536Z,12.5
2022-10-25T14:08:36.128Z,3.5
2022-10-25T14:09:44.469Z,3.5
2022-10-25T14:10:52.858Z,3.5
2022-10-25T14:12:01.393Z,6.1
2022-10-25T14:13:09.709Z,6.1
2022-10-25T14:14:18.034Z,6.1
2022-10-25T14:15:26.578Z,6.9
2022-10-25T14:16:34.924Z,6.9
2022-10-25T14:17:43.295Z,6.9
2022-10-25T14:18:51.848Z,6.5
2022-10-25T14:20:00.295Z,6.5
2022-10-25T14:21:08.589Z,6.5
2022-10-25T14:22:17.174Z,7.1
2022-10-25T14:23:25.482Z,7.1
2022-10-25T14:24:33.846Z,7.1
2022-10-25T14:25:42.402Z,7.3
2022-10-25T14:26:50.777Z,7.3
2022-10-25T14:27:59.112Z,7.3
2022-10-25T14:29:07.681Z,5.7
2022-10-25T15:03:47.524Z,0
2022-10-25T15:04:55.821Z,0
2022-10-25T15:06:04.180Z,0
2022-10-25T15:07:12.761Z,6.7
2022-10-25T15:08:21.090Z,6.7
2022-10-25T15:09:42.142Z,6.7
2022-10-25T15:10:37.962Z,29.4
2022-10-25T15:11:46.325Z,29.4
2022-10-25T15:12:54.732Z,29.4
2022-10-25T15:14:03.314Z,6.4
2022-10-25T15:15:11.666Z,6.4
2022-10-25T15:16:20.017Z,6.4
2022-10-25T15:17:28.589Z,6.7
2022-10-25T15:18:36.914Z,6.7
2022-10-25T15:19:45.383Z,6.7
2022-10-25T15:20:56.468Z,11.3
2022-10-25T15:22:02.229Z,11.3
2022-10-25T15:23:10.571Z,11.3
2022-10-25T15:24:19.123Z,28.4
2022-10-25T15:25:27.466Z,28.4
2022-10-25T15:26:36.975Z,28.4
2022-10-25T15:27:44.461Z,29
2022-10-25T15:28:52.815Z,29
2022-10-25T15:30:01.219Z,29
2022-10-25T15:31:11.370Z,36.099998
2022-10-25T15:32:18.099Z,36.099998
2022-10-25T15:33:26.441Z,36.099998
2022-10-25T15:34:34.987Z,4.8
2022-10-25T15:35:43.365Z,4.8
2022-10-25T15:36:51.682Z,4.8
2022-10-25T15:38:00.230Z,31.299999
2022-10-25T15:39:12.815Z,31.299999
2022-10-25T15:40:16.928Z,31.299999
2022-10-25T15:41:25.505Z,47.299999
2022-10-25T15:42:33.824Z,47.299999
2022-10-25T15:43:42.194Z,47.299999
2022-10-25T15:44:50.750Z,32.799999
2022-10-25T15:45:59.112Z,32.799999
2022-10-25T15:47:07.467Z,32.799999
2022-10-25T15:48:16.045Z,67.400002
2022-10-25T15:49:24.415Z,67.400002
2022-10-25T15:50:32.724Z,67.400002
2022-10-25T15:51:41.350Z,221.69999
2022-10-25T15:52:50.020Z,221.69999
2022-10-25T15:53:58.027Z,221.69999
2022-10-25T15:55:06.621Z,180.8
2022-10-25T15:56:14.970Z,180.8
2022-10-25T15:57:23.301Z,180.8
2022-10-25T15:58:31.842Z,136.39999
2022-10-25T15:59:40.203Z,136.39999
2022-10-25T16:00:48.601Z,136.39999
2022-10-25T16:01:57.095Z,37.599998
2022-10-25T16:03:05.461Z,37.599998
2022-10-25T16:04:13.789Z,37.599998
2022-10-25T16:05:22.378Z,128.39999
2022-10-25T16:06:30.710Z,128.39999
2022-10-25T16:07:39.080Z,128.39999
2022-10-25T16:08:47.634Z,22.299999
2022-10-25T16:09:55.970Z,22.299999
2022-10-25T16:11:04.336Z,22.299999
2022-10-25T16:12:12.895Z,7.4
2022-10-25T16:13:21.248Z,7.4
2022-10-25T16:14:29.567Z,7.4
2022-10-25T16:15:38.094Z,9.5
2022-10-25T16:16:46.409Z,9.5
2022-10-25T16:17:54.727Z,9.5
2022-10-25T16:19:03.678Z,7.4
2022-10-25T16:20:11.569Z,7.4